sensor_id;sensor_type;location;lat;lon;timestamp;P1;durP1;ratioP1;P2;durP2;ratioP2
75746;SDS011;70632;52.232;21.038;2023-07-13T00:01:50;15.63;;;10.05;;
75746;SDS011;70632;52.232;21.038;2023-07-13T00:04:17;14.25;;;9.65;;
75746;SDS011;70632;52.232;21.038;2023-07-13T00:06:44;15.82;;;11.57;;
75746;SDS011;70632;52.232;21.038;2023-07-13T00:09:11;16.10;;;9.48;;
75746;SDS011;70632;52.232;21.038;2023-07-13T00:11:39;17.40;;;9.43;;
75746;SDS011;70632;52.232;21.038;2023-07-13T00:14:06;15.02;;;9.18;;
75746;SDS011;70632;52.232;21.038;2023-07-13T00:16:34;16.48;;;9.80;;
75746;SDS011;70632;52.232;21.038;2023-07-13T00:19:01;15.85;;;10.25;;
75746;SDS011;70632;52.232;21.038;2023-07-13T00:21:27;15.77;;;10.40;;
75746;SDS011;70632;52.232;21.038;2023-07-13T00:23:53;15.93;;;10.20;;
75746;SDS011;70632;52.232;21.038;2023-07-13T00:26:18;12.98;;;9.77;;
75746;SDS011;70632;52.232;21.038;2023-07-13T00:28:44;17.08;;;10.60;;
75746;SDS011;70632;52.232;21.038;2023-07-13T00:31:11;19.38;;;10.52;;
75746;SDS011;70632;52.232;21.038;2023-07-13T00:33:40;14.93;;;10.07;;
75746;SDS011;70632;52.232;21.038;2023-07-13T00:36:06;19.05;;;10.27;;
75746;SDS011;70632;52.232;21.038;2023-07-13T00:38:32;13.93;;;10.15;;
75746;SDS011;70632;52.232;21.038;2023-07-13T00:40:58;17.80;;;10.88;;
75746;SDS011;70632;52.232;21.038;2023-07-13T00:43:25;18.25;;;10.02;;
75746;SDS011;70632;52.232;21.038;2023-07-13T00:48:20;17.30;;;11.57;;
75746;SDS011;70632;52.232;21.038;2023-07-13T00:50:50;17.25;;;11.27;;
75746;SDS011;70632;52.232;21.038;2023-07-13T00:53:20;17.20;;;12.00;;
75746;SDS011;70632;52.232;21.038;2023-07-13T00:55:47;14.90;;;10.68;;
75746;SDS011;70632;52.232;21.038;2023-07-13T00:58:15;16.95;;;10.40;;
75746;SDS011;70632;52.232;21.038;2023-07-13T01:00:41;20.52;;;10.98;;
75746;SDS011;70632;52.232;21.038;2023-07-13T01:03:07;19.10;;;12.73;;
75746;SDS011;70632;52.232;21.038;2023-07-13T01:05:34;16.98;;;10.27;;
75746;SDS011;70632;52.232;21.038;2023-07-13T01:08:01;22.85;;;11.52;;
75746;SDS011;70632;52.232;21.038;2023-07-13T01:10:29;18.35;;;11.02;;
75746;SDS011;70632;52.232;21.038;2023-07-13T01:12:54;17.65;;;11.73;;
75746;SDS011;70632;52.232;21.038;2023-07-13T01:17:59;17.00;;;10.65;;
75746;SDS011;70632;52.232;21.038;2023-07-13T01:20:26;18.13;;;12.00;;
75746;SDS011;70632;52.232;21.038;2023-07-13T01:22:51;21.08;;;13.15;;
75746;SDS011;70632;52.232;21.038;2023-07-13T01:25:17;18.08;;;12.15;;
75746;SDS011;70632;52.232;21.038;2023-07-13T01:27:44;18.58;;;11.18;;
75746;SDS011;70632;52.232;21.038;2023-07-13T01:30:10;18.02;;;12.05;;
75746;SDS011;70632;52.232;21.038;2023-07-13T01:32:36;21.02;;;12.82;;
75746;SDS011;70632;52.232;21.038;2023-07-13T01:35:02;18.25;;;11.70;;
75746;SDS011;70632;52.232;21.038;2023-07-13T01:37:28;16.98;;;12.25;;
75746;SDS011;70632;52.232;21.038;2023-07-13T01:39:59;20.67;;;13.45;;
75746;SDS011;70632;52.232;21.038;2023-07-13T01:42:25;20.73;;;12.82;;
75746;SDS011;70632;52.232;21.038;2023-07-13T01:44:51;20.70;;;11.82;;
75746;SDS011;70632;52.232;21.038;2023-07-13T01:47:16;19.75;;;12.93;;
75746;SDS011;70632;52.232;21.038;2023-07-13T01:49:42;19.65;;;12.25;;
75746;SDS011;70632;52.232;21.038;2023-07-13T01:52:07;19.63;;;12.55;;
75746;SDS011;70632;52.232;21.038;2023-07-13T01:54:33;18.08;;;13.05;;
75746;SDS011;70632;52.232;21.038;2023-07-13T01:56:59;20.85;;;13.25;;
75746;SDS011;70632;52.232;21.038;2023-07-13T01:59:25;18.58;;;12.00;;
75746;SDS011;70632;52.232;21.038;2023-07-13T02:01:51;21.42;;;13.85;;
75746;SDS011;70632;52.232;21.038;2023-07-13T02:04:16;23.20;;;14.10;;
75746;SDS011;70632;52.232;21.038;2023-07-13T02:06:42;19.00;;;12.75;;
75746;SDS011;70632;52.232;21.038;2023-07-13T02:09:08;24.17;;;13.90;;
75746;SDS011;70632;52.232;21.038;2023-07-13T02:11:33;19.98;;;12.18;;
75746;SDS011;70632;52.232;21.038;2023-07-13T02:14:02;22.90;;;13.93;;
75746;SDS011;70632;52.232;21.038;2023-07-13T02:16:29;18.20;;;13.23;;
75746;SDS011;70632;52.232;21.038;2023-07-13T02:18:55;25.75;;;14.60;;
75746;SDS011;70632;52.232;21.038;2023-07-13T02:21:22;22.98;;;14.82;;
75746;SDS011;70632;52.232;21.038;2023-07-13T02:23:49;21.73;;;14.77;;
75746;SDS011;70632;52.232;21.038;2023-07-13T02:26:15;23.13;;;13.57;;
75746;SDS011;70632;52.232;21.038;2023-07-13T02:28:41;22.98;;;14.05;;
75746;SDS011;70632;52.232;21.038;2023-07-13T02:31:11;20.83;;;12.23;;
75746;SDS011;70632;52.232;21.038;2023-07-13T02:33:38;17.52;;;12.80;;
75746;SDS011;70632;52.232;21.038;2023-07-13T02:36:05;20.40;;;13.13;;
75746;SDS011;70632;52.232;21.038;2023-07-13T02:38:31;21.10;;;14.07;;
75746;SDS011;70632;52.232;21.038;2023-07-13T02:41:04;16.40;;;10.95;;
75746;SDS011;70632;52.232;21.038;2023-07-13T02:43:31;20.63;;;12.88;;
75746;SDS011;70632;52.232;21.038;2023-07-13T02:45:58;18.25;;;11.32;;
75746;SDS011;70632;52.232;21.038;2023-07-13T02:48:29;17.70;;;11.43;;
75746;SDS011;70632;52.232;21.038;2023-07-13T02:50:55;18.17;;;11.13;;
75746;SDS011;70632;52.232;21.038;2023-07-13T02:53:21;15.10;;;11.13;;
75746;SDS011;70632;52.232;21.038;2023-07-13T02:55:46;19.60;;;12.07;;
75746;SDS011;70632;52.232;21.038;2023-07-13T02:58:13;17.65;;;12.75;;
75746;SDS011;70632;52.232;21.038;2023-07-13T03:00:45;18.40;;;12.32;;
75746;SDS011;70632;52.232;21.038;2023-07-13T03:03:12;21.35;;;12.02;;
75746;SDS011;70632;52.232;21.038;2023-07-13T03:05:41;21.35;;;11.88;;
75746;SDS011;70632;52.232;21.038;2023-07-13T03:08:10;19.60;;;11.45;;
75746;SDS011;70632;52.232;21.038;2023-07-13T03:10:37;19.98;;;12.90;;
75746;SDS011;70632;52.232;21.038;2023-07-13T03:13:05;17.80;;;11.60;;
75746;SDS011;70632;52.232;21.038;2023-07-13T03:15:30;18.40;;;11.65;;
75746;SDS011;70632;52.232;21.038;2023-07-13T03:17:56;21.70;;;11.70;;
75746;SDS011;70632;52.232;21.038;2023-07-13T03:20:22;16.10;;;11.48;;
75746;SDS011;70632;52.232;21.038;2023-07-13T03:22:48;17.35;;;12.85;;
75746;SDS011;70632;52.232;21.038;2023-07-13T03:25:13;21.58;;;14.85;;
75746;SDS011;70632;52.232;21.038;2023-07-13T03:27:39;21.23;;;15.50;;
75746;SDS011;70632;52.232;21.038;2023-07-13T03:30:05;20.83;;;12.85;;
75746;SDS011;70632;52.232;21.038;2023-07-13T03:32:32;17.70;;;11.57;;
75746;SDS011;70632;52.232;21.038;2023-07-13T03:34:57;20.20;;;13.43;;
75746;SDS011;70632;52.232;21.038;2023-07-13T03:37:23;18.67;;;11.57;;
75746;SDS011;70632;52.232;21.038;2023-07-13T03:39:49;21.10;;;13.98;;
75746;SDS011;70632;52.232;21.038;2023-07-13T03:42:15;22.73;;;13.85;;
75746;SDS011;70632;52.232;21.038;2023-07-13T03:44:41;21.30;;;11.88;;
75746;SDS011;70632;52.232;21.038;2023-07-13T03:47:11;20.90;;;13.43;;
75746;SDS011;70632;52.232;21.038;2023-07-13T03:49:37;21.13;;;14.05;;
75746;SDS011;70632;52.232;21.038;2023-07-13T03:52:03;17.77;;;12.68;;
75746;SDS011;70632;52.232;21.038;2023-07-13T03:54:28;22.50;;;11.82;;
75746;SDS011;70632;52.232;21.038;2023-07-13T03:56:55;20.35;;;12.73;;
75746;SDS011;70632;52.232;21.038;2023-07-13T03:59:20;27.00;;;13.38;;
75746;SDS011;70632;52.232;21.038;2023-07-13T04:01:46;20.83;;;14.10;;
75746;SDS011;70632;52.232;21.038;2023-07-13T04:04:12;17.55;;;13.38;;
75746;SDS011;70632;52.232;21.038;2023-07-13T04:06:38;18.73;;;14.00;;
75746;SDS011;70632;52.232;21.038;2023-07-13T04:09:03;23.55;;;13.52;;
75746;SDS011;70632;52.232;21.038;2023-07-13T04:11:34;17.10;;;13.07;;
75746;SDS011;70632;52.232;21.038;2023-07-13T04:14:01;19.75;;;14.40;;
75746;SDS011;70632;52.232;21.038;2023-07-13T04:16:28;19.27;;;14.00;;
75746;SDS011;70632;52.232;21.038;2023-07-13T04:18:54;19.30;;;12.95;;
75746;SDS011;70632;52.232;21.038;2023-07-13T04:21:25;21.60;;;14.77;;
75746;SDS011;70632;52.232;21.038;2023-07-13T04:23:54;23.90;;;16.00;;
75746;SDS011;70632;52.232;21.038;2023-07-13T04:26:20;20.42;;;14.73;;
75746;SDS011;70632;52.232;21.038;2023-07-13T04:28:46;20.77;;;13.60;;
75746;SDS011;70632;52.232;21.038;2023-07-13T04:31:13;19.70;;;12.82;;
75746;SDS011;70632;52.232;21.038;2023-07-13T04:33:38;19.13;;;12.80;;
75746;SDS011;70632;52.232;21.038;2023-07-13T04:36:04;20.20;;;13.30;;
75746;SDS011;70632;52.232;21.038;2023-07-13T04:38:30;24.60;;;15.23;;
75746;SDS011;70632;52.232;21.038;2023-07-13T04:40:58;21.30;;;15.45;;
75746;SDS011;70632;52.232;21.038;2023-07-13T04:43:26;20.75;;;13.48;;
75746;SDS011;70632;52.232;21.038;2023-07-13T04:45:53;21.98;;;15.18;;
75746;SDS011;70632;52.232;21.038;2023-07-13T04:48:19;22.67;;;15.40;;
75746;SDS011;70632;52.232;21.038;2023-07-13T04:50:45;23.05;;;16.65;;
75746;SDS011;70632;52.232;21.038;2023-07-13T04:53:11;21.25;;;14.98;;
75746;SDS011;70632;52.232;21.038;2023-07-13T04:55:38;24.35;;;15.38;;
75746;SDS011;70632;52.232;21.038;2023-07-13T04:58:04;27.55;;;17.70;;
75746;SDS011;70632;52.232;21.038;2023-07-13T05:00:30;24.50;;;16.90;;
75746;SDS011;70632;52.232;21.038;2023-07-13T05:02:57;24.85;;;15.50;;
75746;SDS011;70632;52.232;21.038;2023-07-13T05:05:24;25.40;;;15.70;;
75746;SDS011;70632;52.232;21.038;2023-07-13T05:07:52;24.83;;;16.02;;
75746;SDS011;70632;52.232;21.038;2023-07-13T05:10:18;29.08;;;17.77;;
75746;SDS011;70632;52.232;21.038;2023-07-13T05:12:44;23.73;;;15.52;;
75746;SDS011;70632;52.232;21.038;2023-07-13T05:15:10;27.08;;;16.25;;
75746;SDS011;70632;52.232;21.038;2023-07-13T05:17:35;25.02;;;16.65;;
75746;SDS011;70632;52.232;21.038;2023-07-13T05:20:02;23.98;;;14.82;;
75746;SDS011;70632;52.232;21.038;2023-07-13T05:22:28;25.52;;;17.88;;
75746;SDS011;70632;52.232;21.038;2023-07-13T05:24:54;23.92;;;15.63;;
75746;SDS011;70632;52.232;21.038;2023-07-13T05:27:19;24.60;;;17.13;;
75746;SDS011;70632;52.232;21.038;2023-07-13T05:29:45;28.23;;;17.08;;
75746;SDS011;70632;52.232;21.038;2023-07-13T05:32:11;23.75;;;16.83;;
75746;SDS011;70632;52.232;21.038;2023-07-13T05:34:36;22.92;;;15.82;;
75746;SDS011;70632;52.232;21.038;2023-07-13T05:37:02;25.30;;;17.00;;
75746;SDS011;70632;52.232;21.038;2023-07-13T05:39:28;27.02;;;17.33;;
75746;SDS011;70632;52.232;21.038;2023-07-13T05:41:54;30.88;;;16.25;;
75746;SDS011;70632;52.232;21.038;2023-07-13T05:44:20;24.52;;;16.30;;
75746;SDS011;70632;52.232;21.038;2023-07-13T05:46:45;24.38;;;15.88;;
75746;SDS011;70632;52.232;21.038;2023-07-13T05:49:11;28.58;;;16.23;;
75746;SDS011;70632;52.232;21.038;2023-07-13T05:51:37;24.05;;;17.10;;
75746;SDS011;70632;52.232;21.038;2023-07-13T05:54:03;24.33;;;17.50;;
75746;SDS011;70632;52.232;21.038;2023-07-13T05:56:28;29.23;;;16.80;;
75746;SDS011;70632;52.232;21.038;2023-07-13T05:58:54;23.88;;;15.98;;
75746;SDS011;70632;52.232;21.038;2023-07-13T06:01:21;25.58;;;15.10;;
75746;SDS011;70632;52.232;21.038;2023-07-13T06:03:47;26.83;;;15.30;;
75746;SDS011;70632;52.232;21.038;2023-07-13T06:06:13;25.08;;;16.38;;
75746;SDS011;70632;52.232;21.038;2023-07-13T06:08:42;21.48;;;14.60;;
75746;SDS011;70632;52.232;21.038;2023-07-13T06:11:09;23.75;;;16.45;;
75746;SDS011;70632;52.232;21.038;2023-07-13T06:13:39;25.85;;;15.55;;
75746;SDS011;70632;52.232;21.038;2023-07-13T06:16:05;28.08;;;16.50;;
75746;SDS011;70632;52.232;21.038;2023-07-13T06:18:32;24.17;;;16.35;;
75746;SDS011;70632;52.232;21.038;2023-07-13T06:20:59;25.80;;;17.10;;
75746;SDS011;70632;52.232;21.038;2023-07-13T06:23:25;24.92;;;16.73;;
75746;SDS011;70632;52.232;21.038;2023-07-13T06:25:50;22.95;;;15.82;;
75746;SDS011;70632;52.232;21.038;2023-07-13T06:28:16;21.55;;;15.15;;
75746;SDS011;70632;52.232;21.038;2023-07-13T06:30:42;22.77;;;16.25;;
75746;SDS011;70632;52.232;21.038;2023-07-13T06:33:08;22.38;;;14.98;;
75746;SDS011;70632;52.232;21.038;2023-07-13T06:35:33;25.27;;;14.70;;
75746;SDS011;70632;52.232;21.038;2023-07-13T06:37:59;22.30;;;15.82;;
75746;SDS011;70632;52.232;21.038;2023-07-13T06:40:25;21.88;;;15.18;;
75746;SDS011;70632;52.232;21.038;2023-07-13T06:42:51;19.90;;;13.25;;
75746;SDS011;70632;52.232;21.038;2023-07-13T06:45:16;21.88;;;14.35;;
75746;SDS011;70632;52.232;21.038;2023-07-13T06:47:42;17.13;;;12.85;;
75746;SDS011;70632;52.232;21.038;2023-07-13T06:50:08;16.33;;;10.77;;
75746;SDS011;70632;52.232;21.038;2023-07-13T06:52:34;13.38;;;9.38;;
75746;SDS011;70632;52.232;21.038;2023-07-13T06:55:00;12.95;;;9.25;;
75746;SDS011;70632;52.232;21.038;2023-07-13T06:57:26;12.13;;;7.93;;
75746;SDS011;70632;52.232;21.038;2023-07-13T06:59:52;12.02;;;8.23;;
75746;SDS011;70632;52.232;21.038;2023-07-13T07:02:18;12.05;;;7.68;;
75746;SDS011;70632;52.232;21.038;2023-07-13T07:04:44;11.30;;;7.28;;
75746;SDS011;70632;52.232;21.038;2023-07-13T07:07:09;11.45;;;6.93;;
75746;SDS011;70632;52.232;21.038;2023-07-13T07:09:35;10.65;;;7.20;;
75746;SDS011;70632;52.232;21.038;2023-07-13T07:12:01;11.43;;;8.05;;
75746;SDS011;70632;52.232;21.038;2023-07-13T07:14:27;8.57;;;5.90;;
75746;SDS011;70632;52.232;21.038;2023-07-13T07:16:53;8.98;;;6.72;;
75746;SDS011;70632;52.232;21.038;2023-07-13T07:19:19;8.10;;;5.90;;
75746;SDS011;70632;52.232;21.038;2023-07-13T07:21:45;11.35;;;7.00;;
75746;SDS011;70632;52.232;21.038;2023-07-13T07:24:11;15.40;;;7.85;;
75746;SDS011;70632;52.232;21.038;2023-07-13T07:26:36;11.65;;;7.13;;
75746;SDS011;70632;52.232;21.038;2023-07-13T07:29:02;14.73;;;8.13;;
75746;SDS011;70632;52.232;21.038;2023-07-13T07:31:28;11.23;;;6.82;;
75746;SDS011;70632;52.232;21.038;2023-07-13T07:33:53;12.35;;;6.53;;
75746;SDS011;70632;52.232;21.038;2023-07-13T07:36:19;11.15;;;6.63;;
75746;SDS011;70632;52.232;21.038;2023-07-13T07:38:45;13.50;;;8.00;;
75746;SDS011;70632;52.232;21.038;2023-07-13T07:41:11;11.00;;;7.75;;
75746;SDS011;70632;52.232;21.038;2023-07-13T07:43:37;10.43;;;7.50;;
75746;SDS011;70632;52.232;21.038;2023-07-13T07:46:03;9.82;;;7.28;;
75746;SDS011;70632;52.232;21.038;2023-07-13T07:48:28;11.32;;;6.50;;
75746;SDS011;70632;52.232;21.038;2023-07-13T07:50:54;8.93;;;6.65;;
75746;SDS011;70632;52.232;21.038;2023-07-13T07:53:20;10.95;;;7.18;;
75746;SDS011;70632;52.232;21.038;2023-07-13T07:55:45;11.38;;;6.95;;
75746;SDS011;70632;52.232;21.038;2023-07-13T07:58:11;11.95;;;7.85;;
75746;SDS011;70632;52.232;21.038;2023-07-13T08:00:37;9.82;;;7.70;;
75746;SDS011;70632;52.232;21.038;2023-07-13T08:03:03;11.43;;;6.32;;
75746;SDS011;70632;52.232;21.038;2023-07-13T08:05:29;12.55;;;7.88;;
75746;SDS011;70632;52.232;21.038;2023-07-13T08:07:54;12.23;;;8.13;;
75746;SDS011;70632;52.232;21.038;2023-07-13T08:10:20;14.48;;;8.00;;
75746;SDS011;70632;52.232;21.038;2023-07-13T08:12:46;11.27;;;6.53;;
75746;SDS011;70632;52.232;21.038;2023-07-13T08:15:13;9.68;;;6.07;;
75746;SDS011;70632;52.232;21.038;2023-07-13T08:17:40;7.53;;;5.43;;
75746;SDS011;70632;52.232;21.038;2023-07-13T08:20:07;8.82;;;6.10;;
75746;SDS011;70632;52.232;21.038;2023-07-13T08:22:34;8.75;;;5.88;;
75746;SDS011;70632;52.232;21.038;2023-07-13T08:25:00;9.57;;;5.72;;
75746;SDS011;70632;52.232;21.038;2023-07-13T08:27:27;6.80;;;4.85;;
75746;SDS011;70632;52.232;21.038;2023-07-13T08:29:54;7.68;;;5.00;;
75746;SDS011;70632;52.232;21.038;2023-07-13T08:32:20;8.35;;;5.63;;
75746;SDS011;70632;52.232;21.038;2023-07-13T08:34:48;8.30;;;5.18;;
75746;SDS011;70632;52.232;21.038;2023-07-13T08:37:14;9.40;;;6.05;;
75746;SDS011;70632;52.232;21.038;2023-07-13T08:39:40;9.90;;;6.47;;
75746;SDS011;70632;52.232;21.038;2023-07-13T08:47:53;8.40;;;5.18;;
75746;SDS011;70632;52.232;21.038;2023-07-13T08:50:25;8.93;;;7.18;;
75746;SDS011;70632;52.232;21.038;2023-07-13T08:52:55;8.90;;;6.50;;
75746;SDS011;70632;52.232;21.038;2023-07-13T08:55:25;11.15;;;7.55;;
75746;SDS011;70632;52.232;21.038;2023-07-13T08:57:56;9.63;;;6.65;;
75746;SDS011;70632;52.232;21.038;2023-07-13T09:00:34;10.57;;;8.30;;
75746;SDS011;70632;52.232;21.038;2023-07-13T09:03:23;10.57;;;7.68;;
75746;SDS011;70632;52.232;21.038;2023-07-13T09:05:56;12.45;;;7.30;;
75746;SDS011;70632;52.232;21.038;2023-07-13T09:11:06;8.98;;;7.20;;
75746;SDS011;70632;52.232;21.038;2023-07-13T09:13:47;13.75;;;7.28;;
75746;SDS011;70632;52.232;21.038;2023-07-13T09:16:26;11.95;;;7.63;;
75746;SDS011;70632;52.232;21.038;2023-07-13T09:18:52;10.20;;;7.22;;
75746;SDS011;70632;52.232;21.038;2023-07-13T09:21:22;11.30;;;7.53;;
75746;SDS011;70632;52.232;21.038;2023-07-13T09:23:53;9.90;;;6.93;;
75746;SDS011;70632;52.232;21.038;2023-07-13T09:26:24;11.68;;;8.18;;
75746;SDS011;70632;52.232;21.038;2023-07-13T09:29:20;12.13;;;7.63;;
75746;SDS011;70632;52.232;21.038;2023-07-13T09:31:53;12.02;;;8.48;;
75746;SDS011;70632;52.232;21.038;2023-07-13T09:34:21;12.23;;;7.65;;
75746;SDS011;70632;52.232;21.038;2023-07-13T09:36:46;8.75;;;7.65;;
75746;SDS011;70632;52.232;21.038;2023-07-13T09:44:17;12.38;;;6.53;;
75746;SDS011;70632;52.232;21.038;2023-07-13T09:46:54;9.63;;;5.30;;
75746;SDS011;70632;52.232;21.038;2023-07-13T09:49:26;10.20;;;4.75;;
75746;SDS011;70632;52.232;21.038;2023-07-13T09:52:01;8.80;;;5.35;;
75746;SDS011;70632;52.232;21.038;2023-07-13T09:54:29;10.15;;;6.07;;
75746;SDS011;70632;52.232;21.038;2023-07-13T09:56:58;10.15;;;5.90;;
75746;SDS011;70632;52.232;21.038;2023-07-13T09:59:33;7.78;;;5.00;;
75746;SDS011;70632;52.232;21.038;2023-07-13T10:02:02;9.25;;;5.50;;
75746;SDS011;70632;52.232;21.038;2023-07-13T10:04:51;13.30;;;5.85;;
75746;SDS011;70632;52.232;21.038;2023-07-13T10:09:51;9.48;;;4.95;;
75746;SDS011;70632;52.232;21.038;2023-07-13T10:12:19;9.50;;;5.90;;
75746;SDS011;70632;52.232;21.038;2023-07-13T10:14:46;8.98;;;5.57;;
75746;SDS011;70632;52.232;21.038;2023-07-13T10:17:13;9.90;;;6.10;;
75746;SDS011;70632;52.232;21.038;2023-07-13T10:19:40;22.90;;;6.28;;
75746;SDS011;70632;52.232;21.038;2023-07-13T10:24:52;12.07;;;5.90;;
75746;SDS011;70632;52.232;21.038;2023-07-13T10:27:23;14.43;;;5.40;;
75746;SDS011;70632;52.232;21.038;2023-07-13T10:29:59;10.23;;;5.50;;
75746;SDS011;70632;52.232;21.038;2023-07-13T10:32:27;9.15;;;5.78;;
75746;SDS011;70632;52.232;21.038;2023-07-13T10:34:52;10.65;;;5.40;;
75746;SDS011;70632;52.232;21.038;2023-07-13T10:37:28;11.82;;;5.65;;
75746;SDS011;70632;52.232;21.038;2023-07-13T10:39:58;9.30;;;5.85;;
75746;SDS011;70632;52.232;21.038;2023-07-13T10:42:28;14.50;;;6.10;;
75746;SDS011;70632;52.232;21.038;2023-07-13T10:44:57;8.65;;;5.07;;
75746;SDS011;70632;52.232;21.038;2023-07-13T10:47:23;11.52;;;5.78;;
75746;SDS011;70632;52.232;21.038;2023-07-13T10:49:50;7.47;;;5.07;;
75746;SDS011;70632;52.232;21.038;2023-07-13T10:58:23;10.63;;;6.10;;
75746;SDS011;70632;52.232;21.038;2023-07-13T11:01:00;10.82;;;5.75;;
75746;SDS011;70632;52.232;21.038;2023-07-13T11:03:28;13.52;;;5.97;;
75746;SDS011;70632;52.232;21.038;2023-07-13T11:08:38;9.93;;;5.47;;
75746;SDS011;70632;52.232;21.038;2023-07-13T11:11:36;13.55;;;7.25;;
75746;SDS011;70632;52.232;21.038;2023-07-13T11:14:26;12.13;;;6.93;;
75746;SDS011;70632;52.232;21.038;2023-07-13T11:16:54;12.10;;;6.82;;
75746;SDS011;70632;52.232;21.038;2023-07-13T11:41:42;10.63;;;6.80;;
75746;SDS011;70632;52.232;21.038;2023-07-13T11:44:14;12.20;;;6.97;;
75746;SDS011;70632;52.232;21.038;2023-07-13T11:46:46;15.13;;;7.25;;
75746;SDS011;70632;52.232;21.038;2023-07-13T11:49:17;10.13;;;6.32;;
75746;SDS011;70632;52.232;21.038;2023-07-13T11:51:46;13.18;;;5.97;;
75746;SDS011;70632;52.232;21.038;2023-07-13T11:54:24;13.55;;;6.05;;
75746;SDS011;70632;52.232;21.038;2023-07-13T11:56:52;9.82;;;6.43;;
75746;SDS011;70632;52.232;21.038;2023-07-13T11:59:20;11.27;;;6.97;;
75746;SDS011;70632;52.232;21.038;2023-07-13T12:01:48;10.65;;;6.03;;
75746;SDS011;70632;52.232;21.038;2023-07-13T12:04:22;9.70;;;6.60;;
75746;SDS011;70632;52.232;21.038;2023-07-13T12:06:57;13.50;;;7.25;;
75746;SDS011;70632;52.232;21.038;2023-07-13T12:09:28;12.93;;;8.18;;
75746;SDS011;70632;52.232;21.038;2023-07-13T12:11:56;13.60;;;8.20;;
75746;SDS011;70632;52.232;21.038;2023-07-13T12:14:22;15.05;;;8.27;;
75746;SDS011;70632;52.232;21.038;2023-07-13T12:16:50;16.75;;;8.35;;
75746;SDS011;70632;52.232;21.038;2023-07-13T12:19:23;17.30;;;10.27;;
75746;SDS011;70632;52.232;21.038;2023-07-13T12:21:56;15.93;;;8.52;;
75746;SDS011;70632;52.232;21.038;2023-07-13T12:24:23;21.75;;;9.25;;
75746;SDS011;70632;52.232;21.038;2023-07-13T12:26:51;15.60;;;9.60;;
75746;SDS011;70632;52.232;21.038;2023-07-13T12:29:25;18.27;;;8.93;;
75746;SDS011;70632;52.232;21.038;2023-07-13T12:31:51;15.48;;;9.18;;
75746;SDS011;70632;52.232;21.038;2023-07-13T12:34:18;17.50;;;10.20;;
75746;SDS011;70632;52.232;21.038;2023-07-13T12:36:50;15.57;;;9.90;;
75746;SDS011;70632;52.232;21.038;2023-07-13T12:41:47;15.90;;;10.23;;
75746;SDS011;70632;52.232;21.038;2023-07-13T12:44:15;17.77;;;9.52;;
75746;SDS011;70632;52.232;21.038;2023-07-13T12:46:56;16.70;;;10.60;;
75746;SDS011;70632;52.232;21.038;2023-07-13T12:49:25;16.55;;;10.07;;
75746;SDS011;70632;52.232;21.038;2023-07-13T12:51:57;16.75;;;9.88;;
75746;SDS011;70632;52.232;21.038;2023-07-13T12:54:24;18.90;;;8.95;;
75746;SDS011;70632;52.232;21.038;2023-07-13T12:56:52;14.30;;;8.48;;
75746;SDS011;70632;52.232;21.038;2023-07-13T12:59:20;14.95;;;9.07;;
75746;SDS011;70632;52.232;21.038;2023-07-13T13:01:47;18.83;;;10.23;;
75746;SDS011;70632;52.232;21.038;2023-07-13T13:04:14;16.80;;;9.75;;
75746;SDS011;70632;52.232;21.038;2023-07-13T13:06:41;18.05;;;9.60;;
75746;SDS011;70632;52.232;21.038;2023-07-13T13:09:15;16.42;;;9.48;;
75746;SDS011;70632;52.232;21.038;2023-07-13T13:11:47;19.08;;;9.20;;
75746;SDS011;70632;52.232;21.038;2023-07-13T13:14:12;19.52;;;10.02;;
75746;SDS011;70632;52.232;21.038;2023-07-13T13:16:43;19.40;;;10.40;;
75746;SDS011;70632;52.232;21.038;2023-07-13T13:21:47;17.85;;;10.30;;
75746;SDS011;70632;52.232;21.038;2023-07-13T13:24:16;18.05;;;10.30;;
75746;SDS011;70632;52.232;21.038;2023-07-13T13:26:44;18.08;;;10.10;;
75746;SDS011;70632;52.232;21.038;2023-07-13T13:29:17;16.73;;;9.68;;
75746;SDS011;70632;52.232;21.038;2023-07-13T13:31:45;18.10;;;10.07;;
75746;SDS011;70632;52.232;21.038;2023-07-13T13:34:12;18.00;;;9.88;;
75746;SDS011;70632;52.232;21.038;2023-07-13T13:36:40;21.70;;;11.20;;
75746;SDS011;70632;52.232;21.038;2023-07-13T13:39:16;24.05;;;11.68;;
75746;SDS011;70632;52.232;21.038;2023-07-13T13:41:47;16.63;;;9.45;;
75746;SDS011;70632;52.232;21.038;2023-07-13T13:44:14;19.85;;;11.38;;
75746;SDS011;70632;52.232;21.038;2023-07-13T13:46:42;18.88;;;10.10;;
75746;SDS011;70632;52.232;21.038;2023-07-13T13:49:14;30.00;;;11.85;;
75746;SDS011;70632;52.232;21.038;2023-07-13T13:51:42;20.00;;;11.00;;
75746;SDS011;70632;52.232;21.038;2023-07-13T13:54:11;21.40;;;11.90;;
75746;SDS011;70632;52.232;21.038;2023-07-13T13:56:42;20.33;;;10.85;;
75746;SDS011;70632;52.232;21.038;2023-07-13T13:59:12;17.42;;;10.30;;
75746;SDS011;70632;52.232;21.038;2023-07-13T14:01:40;19.05;;;12.00;;
75746;SDS011;70632;52.232;21.038;2023-07-13T14:04:10;19.85;;;12.70;;
75746;SDS011;70632;52.232;21.038;2023-07-13T14:06:41;20.95;;;11.35;;
75746;SDS011;70632;52.232;21.038;2023-07-13T14:09:10;25.30;;;13.68;;
75746;SDS011;70632;52.232;21.038;2023-07-13T14:11:38;25.27;;;15.40;;
75746;SDS011;70632;52.232;21.038;2023-07-13T14:14:08;29.10;;;16.73;;
75746;SDS011;70632;52.232;21.038;2023-07-13T14:16:41;27.08;;;17.05;;
75746;SDS011;70632;52.232;21.038;2023-07-13T14:19:09;27.67;;;16.15;;
75746;SDS011;70632;52.232;21.038;2023-07-13T14:21:37;28.80;;;16.05;;
75746;SDS011;70632;52.232;21.038;2023-07-13T14:24:02;28.10;;;15.95;;
75746;SDS011;70632;52.232;21.038;2023-07-13T14:26:29;36.45;;;17.63;;
75746;SDS011;70632;52.232;21.038;2023-07-13T14:29:01;28.17;;;17.25;;
75746;SDS011;70632;52.232;21.038;2023-07-13T14:33:55;29.73;;;16.55;;
75746;SDS011;70632;52.232;21.038;2023-07-13T14:36:31;28.42;;;16.25;;
75746;SDS011;70632;52.232;21.038;2023-07-13T14:38:59;26.38;;;15.73;;
75746;SDS011;70632;52.232;21.038;2023-07-13T14:41:31;24.17;;;14.13;;
75746;SDS011;70632;52.232;21.038;2023-07-13T14:43:58;26.13;;;15.75;;
75746;SDS011;70632;52.232;21.038;2023-07-13T14:46:30;24.77;;;15.90;;
75746;SDS011;70632;52.232;21.038;2023-07-13T14:49:43;22.92;;;15.10;;
75746;SDS011;70632;52.232;21.038;2023-07-13T14:51:50;23.67;;;15.30;;
75746;SDS011;70632;52.232;21.038;2023-07-13T14:54:16;29.95;;;16.17;;
75746;SDS011;70632;52.232;21.038;2023-07-13T14:56:42;27.73;;;16.77;;
75746;SDS011;70632;52.232;21.038;2023-07-13T14:59:07;23.70;;;16.38;;
75746;SDS011;70632;52.232;21.038;2023-07-13T15:01:36;27.77;;;16.23;;
75746;SDS011;70632;52.232;21.038;2023-07-13T15:04:03;26.00;;;16.33;;
75746;SDS011;70632;52.232;21.038;2023-07-13T15:06:29;25.88;;;15.60;;
75746;SDS011;70632;52.232;21.038;2023-07-13T15:08:56;22.40;;;12.55;;
75746;SDS011;70632;52.232;21.038;2023-07-13T15:11:23;17.10;;;11.63;;
75746;SDS011;70632;52.232;21.038;2023-07-13T15:13:49;15.52;;;10.23;;
75746;SDS011;70632;52.232;21.038;2023-07-13T15:16:23;15.50;;;10.85;;
75746;SDS011;70632;52.232;21.038;2023-07-13T15:18:50;13.95;;;9.18;;
75746;SDS011;70632;52.232;21.038;2023-07-13T15:21:19;14.10;;;8.88;;
75746;SDS011;70632;52.232;21.038;2023-07-13T15:23:47;13.18;;;9.00;;